Aeroporto :
LOGIN :

Iscrizione | Disclaimer

   EN    FR    IT 

 










Sommario :    VFR   VFR Marginale   IFR   IFR Intensivo   IFR Molto Intensivo
Visibilità : 
Base nubi : 
>= 8 km
>= 3000ft
5 / 8 km
1000 / 3000 ft
1500m / 5 km
500 / 1000 ft
800 / 1500m
200 / 500 ft
< 800m
< 200 ft
Simboli :   Temporali  Nebbia  Neve Forte  Precipitazioni Forti  Vento > 20 kt
SIGMETs :   Varie  Temporali  Ghiacco  Turbolenza  Onda orograficha  Ceneri Vulcaniche






- Altitudine del aeroporto : 510 ft


LJCE - Cerklje

ULTIMO METAR :
  • 100600Z 26003KT 210V300 CAVOK 19/16 Q1016 RMK BLU

METARs OBSOLETI :
  • 100530Z 26003KT 220V290 CAVOK 18/15 Q1016 RMK BLU
  • 100500Z AUTO 24002KT 9999 NCD 17/15 Q1016
  • 100430Z AUTO VRB01KT 9999 NCD 16/14 Q1016
  • 100400Z AUTO 27001KT 9999 NCD 15/14 Q1016
  • 100330Z AUTO VRB02KT 9999 NCD 14/13 Q1016

TAF TAF LJCE
Valido dal 10 a 06 ore il 10 a 15 ore UTC


100500Z 1006/1015 25003KT CAVOK



MetMap, La meteo Aeronautica in un colpo d'occhio ! - Copyright ORBIFLY Dicembre 2007 - Disclaimer

ORBIFLY MET'MAP TEAM :

Programmazione e sviluppo : Alexandra Zaïnal
Concezione : Baudouin d'Aumeries
Aiuto per la programmazione : Marc-Olivier Méhu
Supporto tecnico e logistico : Manuel Goepfert
Aiuto per la traduzione : Arnaldo La Scala

Contatto : metmap@orbifly.com




FONTI E CREDITI :

   NOAA